Time;durP1;ratioP1;P1;durP2;ratioP2;P2;SDS_P1;SDS_P2;PMS_P1;PMS_P2;Temp;Humidity;BMP_temperature;BMP_pressure;BME280_temperature;BME280_humidity;BME280_pressure;Samples;Min_cycle;Max_cycle;Signal;HPM_P1;HPM_P2
2021/12/10 00:02:46;;;;;;;20.65;11.73;;;;;;;1.87;73.12;98699.28;7632322;32;39250;-77
2021/12/10 00:07:10;;;;;;;20.15;11.05;;;;;;;1.62;73.47;98704.19;7632392;32;40899;-76
2021/12/10 00:11:35;;;;;;;18.52;10.18;;;;;;;1.96;72.77;98709.62;7630974;32;37543;-76
2021/12/10 00:15:54;;;;;;;18.30;10.75;;;;;;;1.96;73.20;98709.62;7631043;32;37237;-77
2021/12/10 00:20:11;;;;;;;19.55;10.60;;;;;;;1.64;74.35;98723.59;7632190;32;39802;-77
2021/12/10 00:24:30;;;;;;;18.58;10.48;;;;;;;1.96;73.39;98723.06;7631775;32;40730;-76
2021/12/10 00:28:47;;;;;;;15.93;8.75;;;;;;;1.50;74.92;98712.28;7631861;32;36961;-77
2021/12/10 00:33:14;;;;;;;16.65;10.02;;;;;;;2.03;72.97;98703.03;7632062;32;38009;-77
2021/12/10 00:37:30;;;;;;;18.08;10.07;;;;;;;2.06;72.77;98712.50;7631862;32;39277;-76
2021/12/10 00:41:47;;;;;;;20.05;10.80;;;;;;;2.52;71.51;98712.44;7631389;32;40671;-76
2021/12/10 00:46:04;;;;;;;17.62;10.10;;;;;;;2.52;70.89;98713.25;7631709;32;37908;-77
2021/12/10 00:50:30;;;;;;;19.05;10.43;;;;;;;2.09;72.48;98705.81;7631570;32;37251;-76
2021/12/10 00:54:47;;;;;;;15.60;9.98;;;;;;;2.35;71.36;98688.25;7631664;32;39780;-77
2021/12/10 00:59:04;;;;;;;17.90;10.50;;;;;;;2.85;69.46;98694.62;7631337;32;39871;-77
2021/12/10 01:03:24;;;;;;;22.40;12.05;;;;;;;2.49;69.77;98735.28;7631271;32;37998;-77
2021/12/10 01:07:40;;;;;;;23.33;13.10;;;;;;;1.82;72.76;98741.38;7631318;32;38082;-77
2021/12/10 01:12:05;;;;;;;23.83;12.80;;;;;;;1.60;73.70;98741.22;7631147;32;39853;-76
2021/12/10 01:26:07;;;;;;;25.98;12.68;;;;;;;2.23;71.72;98707.16;7630776;32;37448;-77
2021/12/10 01:30:24;;;;;;;24.20;13.15;;;;;;;2.03;71.66;98707.59;7629419;32;40089;-77
2021/12/10 01:34:41;;;;;;;25.62;13.88;;;;;;;2.01;72.25;98701.66;7630705;32;39559;-76
2021/12/10 01:38:57;;;;;;;25.65;13.02;;;;;;;2.00;72.52;98700.03;7630584;32;37834;-77
2021/12/10 01:43:22;;;;;;;22.50;11.52;;;;;;;2.01;72.19;98688.22;7630374;32;37133;-77
2021/12/10 01:47:38;;;;;;;24.52;11.65;;;;;;;2.07;72.14;98679.19;7630405;32;39965;-77
2021/12/10 01:51:55;;;;;;;23.38;13.07;;;;;;;1.71;73.33;98692.00;7630103;32;40766;-77
2021/12/10 01:56:18;;;;;;;23.33;12.05;;;;;;;1.28;75.22;98686.09;7633009;32;37782;-77
2021/12/10 02:00:38;;;;;;;21.00;11.70;;;;;;;1.80;73.55;98679.81;7633726;32;37842;-77
2021/12/10 02:04:57;;;;;;;17.55;9.65;;;;;;;1.81;72.59;98691.34;7633623;32;40270;-77
2021/12/10 02:09:13;;;;;;;18.70;9.85;;;;;;;1.67;74.37;98689.00;7632398;32;38960;-77
2021/12/10 02:13:30;;;;;;;16.90;9.40;;;;;;;1.55;74.98;98695.44;7633506;32;37806;-77
2021/12/10 02:17:50;;;;;;;22.85;10.68;;;;;;;1.76;73.63;98675.97;7633607;32;37845;-77
2021/12/10 02:22:07;;;;;;;17.98;10.35;;;;;;;2.02;72.78;98679.12;7633563;32;39355;-77
2021/12/10 02:26:26;;;;;;;17.83;10.52;;;;;;;1.51;74.05;98687.06;7633168;32;40029;-77
2021/12/10 02:30:43;;;;;;;14.82;8.80;;;;;;;1.92;72.82;98681.63;7633381;32;37636;-77
2021/12/10 02:35:00;;;;;;;17.42;9.68;;;;;;;1.84;73.21;98689.00;7633424;32;37108;-76
2021/12/10 02:39:20;;;;;;;14.23;9.10;;;;;;;1.63;74.15;98689.69;7633355;32;40117;-77
2021/12/10 02:43:36;;;;;;;13.57;8.40;;;;;;;0.93;75.85;98697.72;7633455;32;39942;-77
2021/12/10 02:47:53;;;;;;;15.23;8.45;;;;;;;1.19;75.42;98703.63;7633124;32;37586;-77
2021/12/10 02:52:10;;;;;;;16.50;9.25;;;;;;;1.29;74.79;98705.69;7633148;32;37466;-77
2021/12/10 02:56:26;;;;;;;13.68;8.90;;;;;;;0.56;75.60;98729.34;7633206;32;39761;-77
2021/12/10 03:00:52;;;;;;;17.45;9.43;;;;;;;0.76;76.23;98718.28;7633035;32;39723;-77
2021/12/10 03:05:10;;;;;;;17.10;9.13;;;;;;;0.91;76.52;98715.09;7632855;32;38369;-77
2021/12/10 03:09:28;;;;;;;16.85;10.32;;;;;;;1.07;75.68;98721.59;7632854;32;37908;-77
2021/12/10 03:13:44;;;;;;;14.95;9.40;;;;;;;1.05;76.41;98721.88;7633039;32;38853;-76
2021/12/10 03:18:01;;;;;;;19.15;11.25;;;;;;;1.15;75.68;98717.75;7632848;32;41236;-77
2021/12/10 03:22:18;;;;;;;17.80;10.75;;;;;;;1.49;73.80;98727.59;7632890;32;38030;-77
2021/12/10 03:26:34;;;;;;;18.33;10.88;;;;;;;1.17;74.90;98715.66;7632627;32;36941;-77
2021/12/10 03:30:53;;;;;;;15.82;9.68;;;;;;;0.54;76.62;98712.66;7632179;32;39008;-77
2021/12/10 03:35:15;;;;;;;16.50;10.38;;;;;;;0.94;75.23;98715.44;7632669;32;40047;-77
2021/12/10 03:39:32;;;;;;;20.65;9.98;;;;;;;0.74;76.27;98709.62;7632548;32;37929;-76
2021/12/10 03:43:51;;;;;;;17.25;10.45;;;;;;;1.39;73.70;98697.03;7632476;32;37289;-77
2021/12/10 03:48:12;;;;;;;18.58;10.77;;;;;;;0.50;75.73;98719.53;7632574;32;40047;-76
2021/12/10 03:52:28;;;;;;;19.20;10.10;;;;;;;1.17;74.89;98719.13;7632354;32;39878;-77
2021/12/10 03:56:47;;;;;;;19.75;10.38;;;;;;;1.40;73.49;98720.16;7632350;32;37564;-77
2021/12/10 04:01:06;;;;;;;21.52;10.45;;;;;;;0.70;75.35;98727.25;7632363;32;37073;-77
2021/12/10 04:05:23;;;;;;;20.23;10.48;;;;;;;1.23;74.28;98728.13;7632533;32;39047;-77
2021/12/10 04:09:40;;;;;;;18.70;9.60;;;;;;;0.99;74.34;98744.25;7632162;32;40693;-76
2021/12/10 04:13:57;;;;;;;19.87;11.65;;;;;;;1.15;73.98;98720.44;7632079;32;37929;-76
2021/12/10 04:18:13;;;;;;;19.17;10.75;;;;;;;0.69;76.04;98739.84;7631396;32;38100;-76
2021/12/10 04:22:32;;;;;;;20.10;11.25;;;;;;;1.29;74.01;98737.91;7632100;32;40105;-77
2021/12/10 04:26:49;;;;;;;20.35;11.10;;;;;;;1.45;72.72;98739.88;7631933;32;39015;-76
2021/12/10 04:31:05;;;;;;;19.60;12.27;;;;;;;1.85;71.08;98732.84;7631842;32;37975;-76
2021/12/10 04:35:21;;;;;;;19.27;11.23;;;;;;;1.78;71.06;98740.25;7632088;32;38191;-76
2021/12/10 04:39:44;;;;;;;19.25;11.75;;;;;;;2.07;70.40;98732.97;7631911;32;40002;-76
2021/12/10 04:44:00;;;;;;;21.02;11.90;;;;;;;2.03;69.81;98739.88;7631849;32;39583;-76
2021/12/10 04:48:17;;;;;;;20.83;12.05;;;;;;;2.11;69.74;98744.06;7631650;32;37607;-76
2021/12/10 04:52:34;;;;;;;23.73;12.73;;;;;;;1.96;70.45;98749.97;7631544;32;37253;-76
2021/12/10 04:56:52;;;;;;;30.73;14.87;;;;;;;2.19;69.22;98747.16;7631414;32;40084;-76
2021/12/10 05:01:08;;;;;;;28.92;14.80;;;;;;;1.75;69.67;98760.31;7631484;32;39966;-77
2021/12/10 05:05:25;;;;;;;27.85;15.52;;;;;;;1.86;69.85;98764.00;7631355;32;37583;-76
2021/12/10 05:09:41;;;;;;;28.35;15.25;;;;;;;1.96;69.47;98758.84;7631323;32;38112;-77
2021/12/10 05:13:57;;;;;;;29.87;17.20;;;;;;;1.95;69.38;98772.50;7631130;32;40029;-76
2021/12/10 05:18:15;;;;;;;28.02;15.35;;;;;;;1.99;69.26;98769.13;7631103;32;39987;-77
2021/12/10 05:22:31;;;;;;;31.23;16.55;;;;;;;1.97;70.04;98775.81;7630886;32;37964;-76
2021/12/10 05:26:47;;;;;;;30.52;17.08;;;;;;;2.19;68.36;98778.59;7630704;32;38081;-76
2021/12/10 05:31:03;;;;;;;31.95;15.85;;;;;;;2.21;68.30;98788.06;7633439;32;40040;-76
2021/12/10 05:35:20;;;;;;;30.73;17.12;;;;;;;1.97;69.09;98789.25;7633991;32;39972;-77
2021/12/10 05:39:37;;;;;;;27.90;15.30;;;;;;;1.77;69.87;98789.66;7633851;32;37531;-76
2021/12/10 05:43:52;;;;;;;31.58;16.60;;;;;;;1.63;70.50;98781.06;7633960;32;37280;-77
2021/12/10 05:48:09;;;;;;;32.95;17.37;;;;;;;2.22;68.45;98778.94;7633988;32;39217;-76
2021/12/10 05:52:25;;;;;;;31.27;16.33;;;;;;;2.23;67.93;98791.31;7633658;32;40765;-76
2021/12/10 05:56:41;;;;;;;32.92;17.25;;;;;;;1.99;69.09;98793.31;7633645;32;37930;-76
2021/12/10 06:01:03;;;;;;;31.15;16.92;;;;;;;2.17;68.55;98789.59;7633692;32;37225;-76
2021/12/10 06:05:20;;;;;;;33.97;17.83;;;;;;;2.22;68.21;98778.12;7633794;32;39354;-77
2021/12/10 06:09:37;;;;;;;37.22;17.62;;;;;;;2.41;67.47;98781.41;7632344;32;40621;-76
2021/12/10 06:13:53;;;;;;;39.03;19.33;;;;;;;2.24;68.00;98790.28;7633463;32;38794;-76
2021/12/10 06:18:10;;;;;;;33.80;18.15;;;;;;;2.40;67.88;98777.91;7633539;32;37919;-76
2021/12/10 06:22:26;;;;;;;34.00;17.15;;;;;;;2.61;67.57;98765.59;7633444;32;39522;-75
2021/12/10 06:26:42;;;;;;;35.22;18.75;;;;;;;2.83;67.02;98764.88;7633267;32;39657;-76
2021/12/10 06:30:59;;;;;;;36.47;17.05;;;;;;;2.98;66.33;98766.97;7633281;32;37663;-76
2021/12/10 06:35:16;;;;;;;28.70;15.82;;;;;;;2.78;66.83;98772.88;7633405;32;37119;-76
2021/12/10 06:39:33;;;;;;;32.28;16.77;;;;;;;2.94;65.97;98771.22;7632834;32;40027;-76
2021/12/10 06:43:49;;;;;;;37.85;18.52;;;;;;;2.97;65.72;98768.84;7633153;32;40152;-77
2021/12/10 06:48:07;;;;;;;42.65;19.33;;;;;;;3.01;65.82;98764.59;7633095;32;37930;-76
2021/12/10 06:52:23;;;;;;;40.95;18.17;;;;;;;3.07;65.71;98762.81;7633079;32;37194;-76
2021/12/10 06:56:40;;;;;;;41.17;18.62;;;;;;;3.16;65.41;98753.22;7633133;32;39816;-76
2021/12/10 07:01:02;;;;;;;38.72;19.23;;;;;;;3.15;65.55;98754.28;7632956;32;40565;-76
2021/12/10 07:05:18;;;;;;;31.62;17.05;;;;;;;3.15;65.80;98758.84;7632978;32;38096;-76
2021/12/10 07:09:35;;;;;;;32.85;16.95;;;;;;;3.27;65.19;98756.06;7632961;32;37891;-77
2021/12/10 07:13:55;;;;;;;36.92;19.05;;;;;;;3.15;65.29;98742.69;7633017;32;39338;-75
2021/12/10 07:18:12;;;;;;;43.22;20.92;;;;;;;3.20;64.89;98737.38;7632791;32;40753;-76
2021/12/10 07:22:28;;;;;;;32.10;17.98;;;;;;;3.22;64.57;98754.09;7632616;32;38717;-76
2021/12/10 07:26:44;;;;;;;32.33;18.17;;;;;;;3.00;65.02;98749.50;7632544;32;37253;-76
2021/12/10 07:31:01;;;;;;;36.33;17.42;;;;;;;3.18;64.53;98744.91;7632579;32;38960;-76
2021/12/10 07:35:18;;;;;;;100.82;42.88;;;;;;;3.84;66.30;98747.56;7631305;32;39944;-76
2021/12/10 07:39:35;;;;;;;89.35;39.40;;;;;;;3.44;64.19;98745.22;7631206;32;37854;-76
2021/12/10 07:43:51;;;;;;;42.13;22.33;;;;;;;3.82;63.19;98747.00;7632441;32;37306;-76
2021/12/10 07:48:09;;;;;;;36.20;18.23;;;;;;;3.86;62.76;98741.94;7632370;32;39465;-76
2021/12/10 07:52:27;;;;;;;33.45;17.73;;;;;;;3.91;62.67;98747.38;7631302;32;39819;-76
2021/12/10 07:56:44;;;;;;;35.97;18.02;;;;;;;3.99;62.27;98744.22;7632395;32;37006;-75
2021/12/10 08:01:05;;;;;;;34.15;17.45;;;;;;;3.91;62.32;98734.69;7632344;32;38017;-76
2021/12/10 08:05:23;;;;;;;39.85;19.75;;;;;;;3.90;62.62;98726.88;7632539;32;39536;-76
2021/12/10 08:09:42;;;;;;;37.42;18.83;;;;;;;3.92;62.71;98730.13;7632131;32;40103;-75
2021/12/10 08:13:58;;;;;;;36.17;18.37;;;;;;;4.16;62.08;98719.03;7632108;32;38380;-76
2021/12/10 08:18:14;;;;;;;32.20;17.40;;;;;;;4.14;62.06;98720.09;7632165;32;36898;-76
2021/12/10 08:22:31;;;;;;;33.22;17.58;;;;;;;4.03;62.65;98726.47;7632110;32;39880;-76
2021/12/10 08:26:47;;;;;;;34.55;17.98;;;;;;;4.00;62.91;98721.59;7631709;32;40063;-76
2021/12/10 08:31:04;;;;;;;34.38;17.48;;;;;;;4.11;62.63;98717.09;7631699;32;38658;-76
2021/12/10 08:35:23;;;;;;;34.35;19.20;;;;;;;4.16;63.01;98716.31;7631934;32;37154;-76
2021/12/10 08:39:39;;;;;;;39.53;19.92;;;;;;;4.13;62.59;98709.56;7631964;32;39443;-77
2021/12/10 08:43:56;;;;;;;38.90;19.65;;;;;;;3.94;63.26;98722.59;7631769;32;39869;-77
2021/12/10 08:48:12;;;;;;;37.63;18.85;;;;;;;3.85;63.91;98713.34;7631638;32;38541;-76
2021/12/10 08:52:29;;;;;;;33.83;17.48;;;;;;;3.99;62.83;98719.97;7630379;32;37803;-77
2021/12/10 08:56:46;;;;;;;34.72;18.45;;;;;;;4.04;62.52;98714.63;7631614;32;39461;-77
2021/12/10 09:01:09;;;;;;;33.05;18.25;;;;;;;4.17;62.29;98712.56;7631525;32;40588;-77
2021/12/10 09:05:30;;;;;;;37.60;18.35;;;;;;;3.96;62.76;98715.06;7631082;32;38070;-77
2021/12/10 09:09:48;;;;;;;38.33;17.83;;;;;;;4.33;61.86;98709.75;7631288;32;37970;-77
2021/12/10 09:14:07;;;;;;;35.97;18.12;;;;;;;3.79;63.63;98714.34;7631161;32;38835;-77
2021/12/10 09:18:23;;;;;;;31.80;17.45;;;;;;;3.99;63.11;98714.56;7631098;32;39868;-76
2021/12/10 09:22:41;;;;;;;31.20;16.87;;;;;;;4.33;62.02;98717.84;7630943;32;37872;-77
2021/12/10 09:26:59;;;;;;;37.28;19.35;;;;;;;4.22;61.58;98701.81;7629562;32;38001;-77
2021/12/10 09:31:15;;;;;;;38.10;19.58;;;;;;;3.88;62.97;98715.50;7629589;32;39382;-77
2021/12/10 09:35:34;;;;;;;37.75;18.85;;;;;;;4.19;62.31;98707.72;7629396;32;40818;-77
2021/12/10 09:39:51;;;;;;;40.90;19.35;;;;;;;4.03;62.92;98698.69;7630765;32;36831;-77
2021/12/10 09:44:08;;;;;;;35.50;17.87;;;;;;;4.11;62.90;98706.31;7630457;32;37338;-76
2021/12/10 09:48:25;;;;;;;41.10;19.42;;;;;;;4.33;62.05;98701.66;7630337;32;39366;-76
2021/12/10 09:52:41;;;;;;;33.22;18.67;;;;;;;4.27;62.86;98707.25;7630192;32;39937;-77
2021/12/10 09:57:04;;;;;;;36.63;19.02;;;;;;;4.21;62.56;98702.88;7630175;32;37912;-77
2021/12/10 10:01:24;;;;;;;42.53;20.65;;;;;;;4.15;62.62;98699.31;7630216;32;37091;-76
2021/12/10 10:05:43;;;;;;;39.42;20.42;;;;;;;4.43;62.45;98705.50;7630035;32;39370;-77
2021/12/10 10:10:14;;;;;;;38.25;20.85;;;;;;;4.25;63.03;98720.19;7629842;32;38947;-76
2021/12/10 10:14:31;;;;;;;42.13;24.25;;;;;;;4.54;62.22;98711.81;7630299;32;38016;-76
2021/12/10 10:18:49;;;;;;;37.78;22.25;;;;;;;4.55;61.47;98708.00;7633514;32;37322;-76
2021/12/10 10:23:07;;;;;;;43.87;23.38;;;;;;;4.48;61.95;98700.97;7633528;32;38288;-76
2021/12/10 10:27:31;;;;;;;35.60;18.98;;;;;;;4.36;62.66;98697.63;7633164;32;40846;-77
2021/12/10 10:31:52;;;;;;;33.25;18.52;;;;;;;4.45;62.72;98704.19;7633290;32;37898;-77
2021/12/10 10:36:18;;;;;;;33.70;18.58;;;;;;;4.41;62.87;98699.53;7633302;32;36876;-76
2021/12/10 10:40:39;;;;;;;32.92;19.15;;;;;;;4.63;61.97;98692.16;7633315;32;39786;-76
2021/12/10 10:44:58;;;;;;;33.60;18.55;;;;;;;4.68;60.90;98688.69;7633281;32;39764;-76
2021/12/10 10:49:43;;;;;;;33.30;17.80;;;;;;;4.70;61.15;98691.94;7633122;32;38417;-76
2021/12/10 10:54:03;;;;;;;34.22;18.40;;;;;;;4.74;61.19;98682.22;7630217;32;37184;-76
2021/12/10 10:58:22;;;;;;;31.27;16.70;;;;;;;4.57;61.71;98678.88;7633064;32;39237;-76
2021/12/10 11:02:50;;;;;;;30.40;16.50;;;;;;;4.56;61.66;98672.66;7633037;32;40544;-75
2021/12/10 11:07:30;;;;;;;31.48;17.02;;;;;;;4.68;61.26;98669.78;7632963;32;37710;-76
2021/12/10 11:11:50;;;;;;;29.55;15.85;;;;;;;4.74;61.19;98674.13;7632903;32;37373;-78
2021/12/10 11:16:09;;;;;;;44.85;23.23;;;;;;;4.96;61.91;98679.38;7633112;32;40083;-76
2021/12/10 11:20:33;;;;;;;33.65;17.20;;;;;;;5.00;60.82;98668.88;7632772;32;39911;-76
2021/12/10 11:24:56;;;;;;;33.67;17.83;;;;;;;4.70;61.65;98649.53;7632529;32;37868;-76
2021/12/10 11:29:36;;;;;;;28.20;15.60;;;;;;;4.91;60.63;98646.16;7632751;32;37548;-76
2021/12/10 11:33:52;;;;;;;35.80;18.37;;;;;;;4.95;60.82;98633.72;7632652;32;39016;-76
2021/12/10 11:38:16;;;;;;;36.95;19.00;;;;;;;4.93;60.65;98646.69;7632601;32;40717;-76
2021/12/10 11:42:41;;;;;;;34.50;17.92;;;;;;;4.75;61.79;98639.84;7632556;32;38070;-76
2021/12/10 11:51:53;;;;;;;30.90;17.52;;;;;;;5.02;60.75;98645.94;7593560;32;39138;-76
2021/12/10 11:56:18;;;;;;;32.13;16.90;;;;;;;5.01;60.75;98628.09;7632342;32;39953;-76
2021/12/10 12:00:36;;;;;;;28.15;16.87;;;;;;;5.02;60.78;98621.63;7632305;32;37922;-75
2021/12/10 12:04:56;;;;;;;30.08;15.98;;;;;;;4.70;61.70;98635.22;7632396;32;36251;-77
2021/12/10 12:09:30;;;;;;;29.67;16.17;;;;;;;4.94;60.95;98621.31;7632273;32;39166;-75
2021/12/10 12:13:55;;;;;;;29.92;16.23;;;;;;;4.66;61.64;98626.03;7632231;32;39866;-76
2021/12/10 12:18:22;;;;;;;31.02;16.92;;;;;;;4.58;62.11;98623.81;7625440;32;219946;-77
2021/12/10 12:27:30;;;;;;;30.88;16.77;;;;;;;4.69;62.22;98614.69;7593134;32;39426;-76
2021/12/10 12:32:19;;;;;;;31.42;17.15;;;;;;;4.90;61.49;98599.44;7631505;32;41221;-76
2021/12/10 12:37:00;;;;;;;28.58;15.32;;;;;;;4.86;61.08;98599.16;7631571;32;38052;-76
2021/12/10 12:41:47;;;;;;;29.95;16.60;;;;;;;4.74;61.44;98601.22;7631733;32;37293;-78
2021/12/10 12:46:08;;;;;;;28.42;17.30;;;;;;;4.74;61.57;98614.72;7631980;32;39989;-78
2021/12/10 12:50:28;;;;;;;30.88;18.37;;;;;;;4.53;61.78;98621.91;7631756;32;40005;-77
2021/12/10 12:55:22;;;;;;;30.60;18.10;;;;;;;4.65;62.08;98624.41;7631422;32;37612;-77
2021/12/10 12:59:38;;;;;;;32.13;18.90;;;;;;;4.75;61.58;98618.25;7631544;32;38371;-77
2021/12/10 13:04:06;;;;;;;33.85;18.98;;;;;;;4.93;61.08;98604.28;7631446;32;39423;-77
2021/12/10 13:08:44;;;;;;;31.48;17.23;;;;;;;4.82;61.39;98603.44;7630091;32;40118;-79
2021/12/10 13:13:11;;;;;;;35.78;18.98;;;;;;;4.96;61.02;98598.34;7629932;32;37984;-77
2021/12/10 13:17:32;;;;;;;33.72;18.48;;;;;;;4.71;61.67;98601.78;7631145;32;37956;-78
2021/12/10 13:21:55;;;;;;;33.22;17.23;;;;;;;4.80;61.38;98605.59;7631177;32;39930;-78
2021/12/10 13:26:14;;;;;;;30.95;17.48;;;;;;;4.53;61.94;98594.09;7631189;32;40875;-78
2021/12/10 13:30:41;;;;;;;31.00;17.62;;;;;;;4.64;61.64;98595.78;7630822;32;38663;-77
2021/12/10 13:34:58;;;;;;;29.10;16.55;;;;;;;4.33;62.83;98588.31;7630683;32;37118;-77
2021/12/10 13:39:15;;;;;;;30.58;17.40;;;;;;;4.45;62.29;98579.19;7630559;32;39424;-77
2021/12/10 13:43:32;;;;;;;31.15;16.70;;;;;;;4.33;62.37;98595.62;7630414;32;40963;-77
2021/12/10 13:47:53;;;;;;;29.15;16.10;;;;;;;4.39;62.24;98604.53;7629234;32;37652;-77
2021/12/10 13:52:09;;;;;;;28.52;16.33;;;;;;;4.36;62.12;98605.06;7633255;32;37182;-77
2021/12/10 13:56:26;;;;;;;30.10;16.98;;;;;;;4.27;62.63;98605.53;7633959;32;39415;-77
2021/12/10 14:01:03;;;;;;;29.42;16.25;;;;;;;4.35;62.08;98603.41;7633907;32;40823;-78
2021/12/10 14:05:36;;;;;;;32.25;17.40;;;;;;;4.09;63.11;98604.06;7633560;32;38733;-77
2021/12/10 14:09:57;;;;;;;29.30;16.92;;;;;;;4.04;63.37;98601.34;7633779;32;37272;-77
2021/12/10 14:14:13;;;;;;;32.15;17.50;;;;;;;4.17;62.96;98589.28;7633581;32;40131;-77
2021/12/10 14:18:37;;;;;;;33.83;19.17;;;;;;;4.08;63.27;98594.34;7633505;32;40144;-77
2021/12/10 14:23:16;;;;;;;37.20;19.53;;;;;;;4.09;63.02;98592.47;7633054;32;38056;-77
2021/12/10 14:28:00;;;;;;;29.92;17.25;;;;;;;4.31;62.44;98584.25;7633085;32;37306;-77
2021/12/10 14:32:37;;;;;;;29.37;17.08;;;;;;;4.13;62.95;98578.19;7633071;32;40436;-77
2021/12/10 14:37:04;;;;;;;32.15;18.45;;;;;;;4.07;63.20;98590.03;7633325;32;40050;-77
2021/12/10 14:41:45;;;;;;;31.90;16.90;;;;;;;3.81;64.04;98591.72;7632904;32;38947;-77
2021/12/10 14:46:05;;;;;;;32.00;18.05;;;;;;;3.94;63.46;98588.56;7632398;32;37844;-76
2021/12/10 14:50:22;;;;;;;32.30;17.48;;;;;;;4.06;63.11;98590.28;7629794;32;39191;-77
2021/12/10 14:55:07;;;;;;;28.33;17.12;;;;;;;3.90;63.59;98592.88;7632193;32;40150;-77
2021/12/10 14:59:44;;;;;;;31.37;15.60;;;;;;;4.06;62.96;98604.59;7631752;32;38248;-77
2021/12/10 15:04:20;;;;;;;30.85;16.75;;;;;;;4.18;62.56;98603.59;7631261;32;37548;-76
2021/12/10 15:09:08;;;;;;;26.80;16.40;;;;;;;4.17;62.31;98596.56;7631421;32;40646;-77
2021/12/10 15:13:44;;;;;;;27.08;15.57;;;;;;;3.95;63.04;98603.69;7632319;32;40208;-76
2021/12/10 15:18:38;;;;;;;32.38;16.37;;;;;;;3.84;63.56;98609.25;7631620;32;38240;-77
2021/12/10 15:22:56;;;;;;;28.50;17.02;;;;;;;3.81;63.73;98615.16;7632710;32;37827;-77
2021/12/10 15:27:28;;;;;;;29.92;16.62;;;;;;;3.96;63.47;98612.59;7618875;32;39231;-77
2021/12/10 15:31:44;;;;;;;27.08;15.13;;;;;;;3.87;63.30;98611.44;7631548;32;40800;-76
2021/12/10 15:36:03;;;;;;;30.95;15.93;;;;;;;3.89;63.19;98607.41;7632468;32;37709;-77
2021/12/10 15:40:25;;;;;;;28.35;16.52;;;;;;;3.73;63.83;98613.75;7631428;32;37302;-77
2021/12/10 15:44:42;;;;;;;29.92;15.93;;;;;;;3.80;63.76;98606.25;7632433;32;40195;-79
2021/12/10 15:49:01;;;;;;;32.45;16.15;;;;;;;3.80;63.41;98605.47;7630546;32;40923;-79
2021/12/10 15:53:26;;;;;;;26.85;15.38;;;;;;;3.81;63.60;98604.38;7630572;32;38061;-79
2021/12/10 15:57:44;;;;;;;30.67;16.53;;;;;;;3.66;64.15;98599.69;7632316;32;37246;-79
2021/12/10 16:02:04;;;;;;;26.42;15.13;;;;;;;3.80;63.71;98597.38;7630327;32;39866;-78
2021/12/10 16:06:23;;;;;;;30.45;16.87;;;;;;;3.90;63.46;98595.56;7632243;32;40781;-79
2021/12/10 16:10:44;;;;;;;26.77;15.63;;;;;;;3.73;63.93;98603.78;7630105;32;37952;-79
2021/12/10 16:15:15;;;;;;;28.10;14.55;;;;;;;3.68;63.79;98603.72;7629975;32;37278;-80
2021/12/10 16:19:32;;;;;;;28.50;14.63;;;;;;;3.99;63.00;98600.50;7632104;32;39981;-83
2021/12/10 16:24:11;;;;;;;26.77;14.15;;;;;;;3.93;62.83;98602.31;7630087;32;40631;-80
2021/12/10 16:28:29;;;;;;;23.83;13.75;;;;;;;3.72;63.72;98598.63;7631715;32;38548;-80
2021/12/10 16:32:48;;;;;;;25.48;13.68;;;;;;;3.51;64.22;98594.94;7631367;32;38001;-80
2021/12/10 16:37:07;;;;;;;24.73;13.88;;;;;;;3.73;63.23;98595.69;7630429;32;39431;-80
2021/12/10 16:41:30;;;;;;;28.83;16.37;;;;;;;3.87;62.52;98587.19;7630810;32;39976;-80
2021/12/10 16:45:49;;;;;;;29.08;16.55;;;;;;;3.81;62.80;98586.34;7631344;32;37718;-80
2021/12/10 16:50:07;;;;;;;28.95;14.35;;;;;;;3.54;63.65;98597.94;7630223;32;37241;-80
2021/12/10 16:54:29;;;;;;;28.30;14.93;;;;;;;3.47;63.71;98601.91;7630832;32;39554;-80
2021/12/10 16:58:47;;;;;;;27.00;14.68;;;;;;;3.05;65.28;98605.22;7631192;32;40158;-83
2021/12/10 17:03:05;;;;;;;25.10;14.77;;;;;;;3.64;63.16;98601.78;7630597;32;36888;-80
2021/12/10 17:07:26;;;;;;;25.77;15.13;;;;;;;3.65;63.33;98596.16;7631052;32;37985;-81
2021/12/10 17:11:46;;;;;;;24.27;13.80;;;;;;;3.64;62.95;98599.94;7630995;32;39392;-79
2021/12/10 17:16:09;;;;;;;24.75;13.55;;;;;;;3.49;63.36;98599.78;7630831;32;40596;-79
2021/12/10 17:20:37;;;;;;;26.73;14.60;;;;;;;3.70;62.77;98601.59;7630425;32;38154;-80
2021/12/10 17:25:02;;;;;;;25.80;14.73;;;;;;;3.59;62.86;98607.97;7633361;32;37432;-80
2021/12/10 17:29:26;;;;;;;24.35;14.07;;;;;;;3.45;63.30;98614.81;7638791;32;39600;-80
2021/12/10 17:33:47;;;;;;;25.62;14.10;;;;;;;3.71;62.70;98614.00;7638994;32;39904;-79
2021/12/10 17:38:11;;;;;;;27.00;15.07;;;;;;;3.37;63.44;98622.28;7638786;32;37932;-77
2021/12/10 17:42:32;;;;;;;26.92;14.52;;;;;;;3.19;64.27;98614.53;7637960;32;37271;-80
2021/12/10 17:46:57;;;;;;;30.15;14.82;;;;;;;3.50;63.44;98615.69;7637483;32;38121;-79
2021/12/10 17:51:18;;;;;;;25.00;14.38;;;;;;;3.52;63.14;98615.44;7638984;32;39902;-78
2021/12/10 17:55:37;;;;;;;25.10;14.45;;;;;;;3.32;63.90;98618.72;7637248;32;37780;-79
2021/12/10 17:59:56;;;;;;;26.48;14.15;;;;;;;3.37;64.08;98624.97;7638310;32;37975;-79
2021/12/10 18:04:14;;;;;;;25.83;15.40;;;;;;;3.58;63.32;98611.72;7638269;32;38622;-78
2021/12/10 18:08:31;;;;;;;23.42;13.73;;;;;;;3.39;63.70;98624.72;7638179;32;39056;-79
2021/12/10 18:12:51;;;;;;;22.50;13.15;;;;;;;3.21;64.18;98642.06;7637205;32;38051;-77
2021/12/10 18:17:14;;;;;;;25.92;14.63;;;;;;;3.69;62.52;98639.56;7637615;32;37165;-75
2021/12/10 18:21:35;;;;;;;26.70;14.63;;;;;;;3.53;63.20;98639.41;7638099;32;39065;-77
2021/12/10 18:26:12;;;;;;;22.42;14.05;;;;;;;3.68;62.76;98632.56;7636544;32;40675;-77
2021/12/10 18:30:29;;;;;;;23.87;13.60;;;;;;;3.66;62.73;98632.03;7637541;32;37978;-78
2021/12/10 18:34:47;;;;;;;23.02;12.73;;;;;;;3.56;62.81;98640.81;7635838;32;37061;-79
2021/12/10 18:39:14;;;;;;;23.52;12.85;;;;;;;3.72;62.12;98639.06;7631529;32;39893;-78
2021/12/10 18:43:32;;;;;;;23.12;12.70;;;;;;;3.61;62.06;98640.84;7632855;32;40032;-78
2021/12/10 18:47:50;;;;;;;25.15;13.20;;;;;;;3.50;62.74;98631.03;7636786;32;37660;-76
2021/12/10 18:52:15;;;;;;;19.83;12.82;;;;;;;3.69;61.86;98636.87;7652305;32;37668;-76
2021/12/10 18:57:23;;;;;;;23.38;13.82;;;;;;;3.67;62.17;98647.91;7657903;32;39715;-77
2021/12/10 19:01:52;;;;;;;21.33;12.73;;;;;;;3.58;62.53;98655.66;7648997;32;39866;-77
2021/12/10 19:06:14;;;;;;;27.33;14.90;;;;;;;3.65;62.49;98660.84;7657867;32;37920;-76
2021/12/10 19:10:38;;;;;;;24.25;13.80;;;;;;;3.67;62.35;98669.47;7658932;32;37878;-77
2021/12/10 19:15:14;;;;;;;23.25;12.85;;;;;;;3.45;62.94;98671.41;7658510;32;39074;-77
2021/12/10 19:19:34;;;;;;;23.20;13.13;;;;;;;3.56;62.67;98670.44;7658340;32;40830;-77
2021/12/10 19:23:57;;;;;;;23.25;13.62;;;;;;;3.63;62.74;98667.56;7658427;32;38089;-77
2021/12/10 19:28:19;;;;;;;23.83;14.40;;;;;;;3.46;63.16;98678.41;7657567;32;37348;-78
2021/12/10 19:32:39;;;;;;;23.83;13.55;;;;;;;3.42;62.91;98682.69;7658903;32;40172;-78
2021/12/10 19:37:12;;;;;;;26.42;15.25;;;;;;;3.49;63.04;98683.31;7657665;32;40158;-79
2021/12/10 19:41:38;;;;;;;25.40;13.73;;;;;;;3.55;62.80;98687.69;7658760;32;37976;-79
2021/12/10 19:46:03;;;;;;;23.52;14.07;;;;;;;3.29;63.70;98695.47;7658775;32;37762;-78
2021/12/10 19:50:27;;;;;;;23.83;14.65;;;;;;;3.62;63.00;98700.97;7657000;32;40033;-79
2021/12/10 19:54:50;;;;;;;25.67;14.57;;;;;;;3.51;63.06;98700.03;7658517;32;40061;-77
2021/12/10 19:59:17;;;;;;;28.25;14.63;;;;;;;3.63;63.21;98694.50;7648042;32;38629;-77
2021/12/10 20:03:43;;;;;;;23.52;14.85;;;;;;;3.52;63.44;98688.22;7632446;32;38074;-77
2021/12/10 20:08:28;;;;;;;24.08;14.75;;;;;;;3.65;63.03;98687.78;7632330;32;39391;-77
2021/12/10 20:12:52;;;;;;;26.45;14.87;;;;;;;3.53;63.64;98687.12;7628670;32;39814;-77
2021/12/10 20:17:17;;;;;;;28.05;15.10;;;;;;;3.66;63.03;98694.00;7631955;32;38677;-77
2021/12/10 20:22:03;;;;;;;23.08;14.77;;;;;;;3.59;63.69;98707.69;7632178;32;38041;-77
2021/12/10 20:26:27;;;;;;;25.42;14.98;;;;;;;3.34;63.80;98711.69;7631989;32;39999;-77
2021/12/10 20:30:49;;;;;;;25.12;16.02;;;;;;;3.78;62.60;98713.53;7632161;32;39908;-78
2021/12/10 20:35:20;;;;;;;26.17;15.60;;;;;;;3.80;62.25;98710.59;7631885;32;37924;-79
2021/12/10 20:39:44;;;;;;;30.00;15.85;;;;;;;3.45;63.57;98703.72;7631995;32;37757;-79